sensor_id;sensor_type;location;lat;lon;timestamp;P1;durP1;ratioP1;P2;durP2;ratioP2
61009;SDS011;46897;55.340;86.082;2023-01-08T00:01:49;14.85;;;5.57;;
61009;SDS011;46897;55.340;86.082;2023-01-08T00:04:19;11.10;;;4.55;;
61009;SDS011;46897;55.340;86.082;2023-01-08T00:06:50;9.40;;;4.07;;
61009;SDS011;46897;55.340;86.082;2023-01-08T00:09:19;11.15;;;4.53;;
61009;SDS011;46897;55.340;86.082;2023-01-08T00:11:48;10.27;;;4.45;;
61009;SDS011;46897;55.340;86.082;2023-01-08T00:14:18;10.82;;;5.03;;
61009;SDS011;46897;55.340;86.082;2023-01-08T00:16:47;12.07;;;5.20;;
61009;SDS011;46897;55.340;86.082;2023-01-08T00:19:17;10.77;;;3.88;;
61009;SDS011;46897;55.340;86.082;2023-01-08T00:21:47;9.50;;;4.03;;
61009;SDS011;46897;55.340;86.082;2023-01-08T00:24:17;14.07;;;5.60;;
61009;SDS011;46897;55.340;86.082;2023-01-08T00:26:47;12.63;;;4.47;;
61009;SDS011;46897;55.340;86.082;2023-01-08T00:29:16;11.95;;;4.55;;
61009;SDS011;46897;55.340;86.082;2023-01-08T00:31:45;9.77;;;4.97;;
61009;SDS011;46897;55.340;86.082;2023-01-08T00:34:15;9.55;;;4.78;;
61009;SDS011;46897;55.340;86.082;2023-01-08T00:36:44;10.57;;;4.60;;
61009;SDS011;46897;55.340;86.082;2023-01-08T00:39:13;11.18;;;4.63;;
61009;SDS011;46897;55.340;86.082;2023-01-08T00:41:44;10.80;;;4.43;;
61009;SDS011;46897;55.340;86.082;2023-01-08T00:44:15;9.07;;;4.50;;
61009;SDS011;46897;55.340;86.082;2023-01-08T00:46:44;11.93;;;4.38;;
61009;SDS011;46897;55.340;86.082;2023-01-08T00:49:14;7.55;;;3.65;;
61009;SDS011;46897;55.340;86.082;2023-01-08T00:51:43;9.40;;;4.30;;
61009;SDS011;46897;55.340;86.082;2023-01-08T00:54:12;12.80;;;4.85;;
61009;SDS011;46897;55.340;86.082;2023-01-08T00:56:41;11.27;;;4.72;;
61009;SDS011;46897;55.340;86.082;2023-01-08T00:59:12;17.00;;;6.68;;
61009;SDS011;46897;55.340;86.082;2023-01-08T01:01:41;15.57;;;6.53;;
61009;SDS011;46897;55.340;86.082;2023-01-08T01:04:11;13.55;;;5.90;;
61009;SDS011;46897;55.340;86.082;2023-01-08T01:06:41;17.92;;;6.55;;
61009;SDS011;46897;55.340;86.082;2023-01-08T01:09:11;13.55;;;5.63;;
61009;SDS011;46897;55.340;86.082;2023-01-08T01:11:40;14.07;;;4.68;;
61009;SDS011;46897;55.340;86.082;2023-01-08T01:14:11;12.23;;;4.40;;
61009;SDS011;46897;55.340;86.082;2023-01-08T01:16:40;12.85;;;5.32;;
61009;SDS011;46897;55.340;86.082;2023-01-08T01:19:10;16.30;;;5.47;;
61009;SDS011;46897;55.340;86.082;2023-01-08T01:21:39;11.00;;;5.10;;
61009;SDS011;46897;55.340;86.082;2023-01-08T01:24:09;14.85;;;5.60;;
61009;SDS011;46897;55.340;86.082;2023-01-08T01:26:41;15.07;;;6.25;;
61009;SDS011;46897;55.340;86.082;2023-01-08T01:29:12;11.25;;;5.07;;
61009;SDS011;46897;55.340;86.082;2023-01-08T01:31:42;11.77;;;4.97;;
61009;SDS011;46897;55.340;86.082;2023-01-08T01:34:11;13.57;;;5.47;;
61009;SDS011;46897;55.340;86.082;2023-01-08T01:36:40;13.00;;;5.43;;
61009;SDS011;46897;55.340;86.082;2023-01-08T01:39:10;13.65;;;5.53;;
61009;SDS011;46897;55.340;86.082;2023-01-08T01:41:40;14.80;;;5.43;;
61009;SDS011;46897;55.340;86.082;2023-01-08T01:47:08;13.60;;;5.45;;
61009;SDS011;46897;55.340;86.082;2023-01-08T01:49:45;11.05;;;4.80;;
61009;SDS011;46897;55.340;86.082;2023-01-08T01:52:20;12.93;;;4.88;;
61009;SDS011;46897;55.340;86.082;2023-01-08T01:54:50;14.27;;;5.50;;
61009;SDS011;46897;55.340;86.082;2023-01-08T01:57:21;14.15;;;4.80;;
61009;SDS011;46897;55.340;86.082;2023-01-08T01:59:52;14.80;;;6.50;;
61009;SDS011;46897;55.340;86.082;2023-01-08T02:02:24;10.65;;;4.15;;
61009;SDS011;46897;55.340;86.082;2023-01-08T02:04:54;13.52;;;5.10;;
61009;SDS011;46897;55.340;86.082;2023-01-08T02:07:24;11.25;;;5.03;;
61009;SDS011;46897;55.340;86.082;2023-01-08T02:10:03;11.27;;;5.30;;
61009;SDS011;46897;55.340;86.082;2023-01-08T02:12:37;10.63;;;5.05;;
61009;SDS011;46897;55.340;86.082;2023-01-08T02:15:14;13.20;;;5.20;;
61009;SDS011;46897;55.340;86.082;2023-01-08T02:17:52;14.35;;;5.78;;
61009;SDS011;46897;55.340;86.082;2023-01-08T02:20:26;16.35;;;7.55;;
61009;SDS011;46897;55.340;86.082;2023-01-08T02:23:05;20.85;;;8.05;;
61009;SDS011;46897;55.340;86.082;2023-01-08T02:26:00;19.58;;;7.40;;
61009;SDS011;46897;55.340;86.082;2023-01-08T02:28:47;16.92;;;6.82;;
61009;SDS011;46897;55.340;86.082;2023-01-08T02:31:20;17.60;;;6.63;;
61009;SDS011;46897;55.340;86.082;2023-01-08T02:33:52;18.60;;;6.55;;
61009;SDS011;46897;55.340;86.082;2023-01-08T02:36:24;18.73;;;6.03;;
61009;SDS011;46897;55.340;86.082;2023-01-08T02:39:03;16.73;;;6.68;;
61009;SDS011;46897;55.340;86.082;2023-01-08T02:41:53;20.98;;;7.88;;
61009;SDS011;46897;55.340;86.082;2023-01-08T02:44:34;16.38;;;6.28;;
61009;SDS011;46897;55.340;86.082;2023-01-08T02:47:14;13.15;;;6.18;;
61009;SDS011;46897;55.340;86.082;2023-01-08T02:49:50;17.85;;;8.05;;
61009;SDS011;46897;55.340;86.082;2023-01-08T02:52:22;16.80;;;5.28;;
61009;SDS011;46897;55.340;86.082;2023-01-08T02:54:56;17.77;;;6.30;;
61009;SDS011;46897;55.340;86.082;2023-01-08T02:57:29;13.02;;;5.97;;
61009;SDS011;46897;55.340;86.082;2023-01-08T03:00:02;10.68;;;5.05;;
61009;SDS011;46897;55.340;86.082;2023-01-08T03:02:32;12.77;;;4.43;;
61009;SDS011;46897;55.340;86.082;2023-01-08T03:05:06;11.13;;;4.72;;
61009;SDS011;46897;55.340;86.082;2023-01-08T03:07:42;10.18;;;3.95;;
61009;SDS011;46897;55.340;86.082;2023-01-08T03:10:11;16.52;;;6.13;;
61009;SDS011;46897;55.340;86.082;2023-01-08T03:12:46;11.70;;;4.63;;
61009;SDS011;46897;55.340;86.082;2023-01-08T03:15:23;13.20;;;5.07;;
61009;SDS011;46897;55.340;86.082;2023-01-08T03:17:59;10.85;;;4.15;;
61009;SDS011;46897;55.340;86.082;2023-01-08T03:20:32;11.93;;;4.68;;
61009;SDS011;46897;55.340;86.082;2023-01-08T03:23:05;12.02;;;4.35;;
61009;SDS011;46897;55.340;86.082;2023-01-08T03:25:38;14.68;;;4.63;;
61009;SDS011;46897;55.340;86.082;2023-01-08T03:28:14;12.15;;;5.53;;
61009;SDS011;46897;55.340;86.082;2023-01-08T03:30:47;14.52;;;5.25;;
61009;SDS011;46897;55.340;86.082;2023-01-08T03:33:20;15.77;;;5.95;;
61009;SDS011;46897;55.340;86.082;2023-01-08T03:35:52;19.90;;;6.57;;
61009;SDS011;46897;55.340;86.082;2023-01-08T03:38:25;26.23;;;7.15;;
61009;SDS011;46897;55.340;86.082;2023-01-08T03:40:59;17.45;;;6.13;;
61009;SDS011;46897;55.340;86.082;2023-01-08T03:43:33;17.45;;;5.65;;
61009;SDS011;46897;55.340;86.082;2023-01-08T03:46:03;13.38;;;5.53;;
61009;SDS011;46897;55.340;86.082;2023-01-08T03:48:37;16.05;;;6.93;;
61009;SDS011;46897;55.340;86.082;2023-01-08T03:51:08;23.48;;;8.13;;
61009;SDS011;46897;55.340;86.082;2023-01-08T03:53:38;20.33;;;8.35;;
61009;SDS011;46897;55.340;86.082;2023-01-08T03:56:07;16.77;;;6.82;;
61009;SDS011;46897;55.340;86.082;2023-01-08T03:58:38;18.92;;;7.53;;
61009;SDS011;46897;55.340;86.082;2023-01-08T04:01:07;22.67;;;7.63;;
61009;SDS011;46897;55.340;86.082;2023-01-08T04:03:37;14.88;;;6.55;;
61009;SDS011;46897;55.340;86.082;2023-01-08T04:06:06;19.52;;;8.18;;
61009;SDS011;46897;55.340;86.082;2023-01-08T04:08:36;18.70;;;8.00;;
61009;SDS011;46897;55.340;86.082;2023-01-08T04:11:06;22.60;;;9.43;;
61009;SDS011;46897;55.340;86.082;2023-01-08T04:13:35;20.17;;;7.80;;
61009;SDS011;46897;55.340;86.082;2023-01-08T04:16:06;13.85;;;6.28;;
61009;SDS011;46897;55.340;86.082;2023-01-08T04:18:36;21.25;;;8.63;;
61009;SDS011;46897;55.340;86.082;2023-01-08T04:21:05;23.38;;;9.23;;
61009;SDS011;46897;55.340;86.082;2023-01-08T04:23:34;19.63;;;8.30;;
61009;SDS011;46897;55.340;86.082;2023-01-08T04:26:04;24.35;;;8.88;;
61009;SDS011;46897;55.340;86.082;2023-01-08T04:28:34;19.80;;;8.07;;
61009;SDS011;46897;55.340;86.082;2023-01-08T04:31:06;18.05;;;7.82;;
61009;SDS011;46897;55.340;86.082;2023-01-08T04:33:35;24.98;;;9.15;;
61009;SDS011;46897;55.340;86.082;2023-01-08T04:36:05;16.52;;;7.97;;
61009;SDS011;46897;55.340;86.082;2023-01-08T04:38:34;16.58;;;7.28;;
61009;SDS011;46897;55.340;86.082;2023-01-08T04:41:04;18.13;;;7.40;;
61009;SDS011;46897;55.340;86.082;2023-01-08T04:43:34;17.95;;;7.88;;
61009;SDS011;46897;55.340;86.082;2023-01-08T04:46:03;21.67;;;8.80;;
61009;SDS011;46897;55.340;86.082;2023-01-08T04:48:35;20.60;;;8.05;;
61009;SDS011;46897;55.340;86.082;2023-01-08T04:51:04;26.48;;;10.35;;
61009;SDS011;46897;55.340;86.082;2023-01-08T04:53:34;33.95;;;12.57;;
61009;SDS011;46897;55.340;86.082;2023-01-08T04:56:06;28.27;;;11.50;;
61009;SDS011;46897;55.340;86.082;2023-01-08T04:58:37;28.52;;;11.75;;
